createdAt,value
2022-10-01T00:01:40.038Z,1.90
2022-10-01T00:05:29.098Z,4.40
2022-10-01T00:09:18.099Z,3.90
2022-10-01T00:12:49.033Z,3.30
2022-10-01T00:16:40.810Z,4.20
2022-10-01T00:19:29.024Z,2.70
2022-10-01T00:21:57.346Z,9.40
2022-10-01T00:24:25.723Z,2.60
2022-10-01T00:26:54.046Z,2.90
2022-10-01T00:29:22.348Z,2.40
2022-10-01T00:31:50.457Z,2.70
2022-10-01T00:34:18.720Z,3.00
2022-10-01T00:36:47.492Z,2.90
2022-10-01T00:39:15.884Z,6.00
2022-10-01T00:41:48.122Z,3.40
2022-10-01T00:44:29.484Z,2.70
2022-10-01T00:47:03.000Z,1.80
2022-10-01T00:49:35.360Z,7.50
2022-10-01T00:52:09.068Z,6.10
2022-10-01T00:54:50.878Z,6.40
2022-10-01T00:57:25.191Z,2.90
2022-10-01T00:59:56.918Z,4.00
2022-10-01T01:02:25.066Z,3.60
2022-10-01T01:04:53.199Z,2.10
2022-10-01T01:07:22.255Z,3.20
2022-10-01T01:09:53.749Z,5.60
2022-10-01T01:12:55.036Z,3.50
2022-10-01T01:15:43.604Z,4.50
2022-10-01T01:18:56.300Z,3.60
2022-10-01T01:21:49.759Z,3.40
2022-10-01T01:24:38.661Z,3.80
2022-10-01T01:27:28.104Z,2.40
2022-10-01T01:30:15.834Z,3.50
2022-10-01T01:32:53.185Z,2.30
2022-10-01T01:35:32.371Z,3.70
2022-10-01T01:38:10.415Z,4.90
2022-10-01T01:40:41.741Z,3.00
2022-10-01T01:43:19.629Z,2.90
2022-10-01T01:45:51.497Z,2.60
2022-10-01T01:48:19.582Z,4.10
2022-10-01T01:50:57.095Z,3.20
2022-10-01T01:53:26.315Z,2.90
2022-10-01T01:55:55.995Z,3.30
2022-10-01T01:58:26.378Z,2.70
2022-10-01T02:05:03.814Z,4.10
2022-10-01T02:08:08.211Z,4.30
2022-10-01T02:11:14.176Z,5.10
2022-10-01T02:13:42.146Z,3.70
2022-10-01T02:16:18.970Z,6.60
2022-10-01T02:19:05.756Z,2.00
2022-10-01T02:21:48.578Z,2.10
2022-10-01T02:24:16.671Z,5.40
2022-10-01T02:26:47.536Z,3.00
2022-10-01T02:29:19.947Z,3.60
2022-10-01T02:31:53.441Z,5.10
2022-10-01T02:34:24.729Z,2.90
2022-10-01T02:36:54.955Z,2.20
2022-10-01T02:39:26.518Z,3.90
2022-10-01T02:41:56.892Z,3.10
2022-10-01T02:44:31.678Z,2.50
2022-10-01T02:47:14.734Z,4.30
2022-10-01T02:49:43.163Z,3.50
2022-10-01T02:52:14.290Z,1.50
2022-10-01T02:55:00.861Z,1.90
2022-10-01T02:57:30.211Z,2.10
2022-10-01T03:00:01.673Z,2.50
2022-10-01T03:02:32.383Z,3.70
2022-10-01T03:05:01.311Z,4.60
2022-10-01T03:07:31.520Z,3.80
2022-10-01T03:09:59.590Z,5.50
2022-10-01T03:12:28.126Z,3.70
2022-10-01T03:14:56.235Z,2.20
2022-10-01T03:17:25.187Z,5.70
2022-10-01T03:19:53.299Z,3.10
2022-10-01T03:22:22.916Z,6.20
2022-10-01T03:24:52.569Z,4.40
2022-10-01T03:27:21.545Z,5.40
2022-10-01T03:29:50.075Z,5.10
2022-10-01T03:32:19.143Z,5.70
2022-10-01T03:34:47.925Z,4.90
2022-10-01T03:37:16.153Z,3.30
2022-10-01T03:39:44.251Z,4.70
2022-10-01T03:42:12.382Z,5.50
2022-10-01T03:44:41.592Z,4.90
2022-10-01T03:47:10.586Z,4.50
2022-10-01T03:49:39.048Z,3.90
2022-10-01T03:52:07.420Z,8.60
2022-10-01T03:54:35.576Z,5.40
2022-10-01T03:57:04.431Z,7.20
2022-10-01T03:59:32.595Z,4.60
2022-10-01T04:02:01.294Z,6.30
2022-10-01T04:04:29.451Z,4.80
2022-10-01T04:06:57.515Z,5.30
2022-10-01T04:09:26.320Z,5.10
2022-10-01T04:11:55.147Z,6.90
2022-10-01T04:14:23.182Z,5.40
2022-10-01T04:16:52.714Z,3.40
2022-10-01T04:19:21.386Z,2.70
2022-10-01T04:21:49.601Z,4.30
2022-10-01T04:24:18.548Z,4.30
2022-10-01T04:26:46.516Z,6.40
2022-10-01T04:29:14.616Z,3.90
2022-10-01T04:31:42.723Z,2.70
2022-10-01T04:34:10.766Z,7.60
2022-10-01T04:36:38.762Z,4.90
2022-10-01T04:39:06.870Z,6.90
2022-10-01T04:41:35.142Z,7.50
2022-10-01T04:44:03.600Z,3.60
2022-10-01T04:46:31.688Z,7.30
2022-10-01T04:48:59.874Z,7.90
2022-10-01T04:51:27.996Z,3.40
2022-10-01T04:53:56.208Z,6.10
2022-10-01T04:56:24.293Z,3.90
2022-10-01T04:58:52.393Z,8.70
2022-10-01T05:01:20.689Z,3.10
2022-10-01T05:03:48.871Z,4.70
2022-10-01T05:07:19.957Z,5.30
2022-10-01T05:12:03.570Z,5.50
2022-10-01T05:19:07.018Z,5.60
2022-10-01T05:21:37.642Z,3.20
2022-10-01T05:24:06.248Z,10.30
2022-10-01T05:26:37.478Z,6.70
2022-10-01T05:29:06.180Z,4.60
2022-10-01T05:31:34.878Z,5.50
2022-10-01T05:34:03.751Z,9.00
2022-10-01T05:36:31.943Z,8.00
2022-10-01T05:39:05.505Z,11.60
2022-10-01T05:41:33.890Z,5.10
2022-10-01T05:44:03.133Z,6.00
2022-10-01T05:46:35.287Z,10.40
2022-10-01T05:49:03.485Z,4.50
2022-10-01T05:51:31.609Z,4.10
2022-10-01T05:54:01.263Z,11.80
2022-10-01T05:56:29.350Z,3.00
2022-10-01T05:58:57.392Z,5.20
2022-10-01T06:01:25.447Z,5.50
2022-10-01T06:03:53.544Z,6.30
2022-10-01T06:06:26.508Z,2.80
2022-10-01T06:08:54.954Z,5.30
2022-10-01T06:11:24.361Z,2.70
2022-10-01T06:13:52.547Z,11.80
2022-10-01T06:16:20.990Z,13.40
2022-10-01T06:18:49.758Z,10.00
2022-10-01T06:21:18.516Z,8.60
2022-10-01T06:23:49.435Z,8.90
2022-10-01T06:26:18.541Z,11.60
2022-10-01T06:28:50.606Z,9.00
2022-10-01T06:31:21.258Z,6.40
2022-10-01T06:33:49.339Z,9.60
2022-10-01T06:36:17.508Z,8.50
2022-10-01T06:38:48.635Z,12.10
2022-10-01T06:41:17.306Z,7.90
2022-10-01T06:43:45.668Z,7.90
2022-10-01T06:46:14.373Z,12.70
2022-10-01T06:48:44.543Z,6.00
2022-10-01T06:51:13.192Z,5.20
2022-10-01T06:53:41.908Z,5.30
2022-10-01T06:56:13.444Z,4.50
2022-10-01T06:58:43.484Z,4.70
2022-10-01T07:01:13.087Z,5.20
2022-10-01T07:03:41.715Z,8.60
2022-10-01T07:06:11.349Z,6.00
2022-10-01T07:08:40.535Z,4.30
2022-10-01T07:11:08.618Z,5.50
2022-10-01T07:13:36.687Z,4.70
2022-10-01T07:16:05.128Z,8.90
2022-10-01T07:18:33.506Z,5.00
2022-10-01T07:21:01.959Z,10.00
2022-10-01T07:23:29.977Z,3.00
2022-10-01T07:25:59.127Z,2.60
2022-10-01T07:28:28.350Z,6.20
2022-10-01T07:31:00.799Z,6.30
2022-10-01T07:33:29.350Z,10.50
2022-10-01T07:36:01.329Z,11.80
2022-10-01T07:38:29.737Z,18.40
2022-10-01T07:40:59.124Z,18.70
2022-10-01T07:43:27.380Z,16.40
2022-10-01T07:45:58.448Z,18.60
2022-10-01T07:48:27.997Z,20.70
2022-10-01T07:50:57.868Z,21.50
2022-10-01T07:53:25.998Z,20.60
2022-10-01T07:55:53.949Z,14.50
2022-10-01T07:58:24.342Z,14.10
2022-10-01T08:00:58.238Z,10.40
2022-10-01T08:03:26.771Z,6.90
2022-10-01T08:05:54.945Z,10.30
2022-10-01T08:08:23.196Z,5.80
2022-10-01T08:10:51.374Z,13.10
2022-10-01T08:13:20.448Z,7.10
2022-10-01T08:15:53.726Z,6.90
2022-10-01T08:18:23.228Z,5.80
2022-10-01T08:20:51.091Z,4.30
2022-10-01T08:23:19.274Z,5.40
2022-10-01T08:25:48.042Z,6.10
2022-10-01T08:28:16.579Z,2.50
2022-10-01T08:30:44.741Z,4.70
2022-10-01T08:33:14.592Z,3.60
2022-10-01T08:35:43.712Z,3.70
2022-10-01T08:38:13.029Z,3.20
2022-10-01T08:40:50.459Z,2.20
2022-10-01T08:43:38.884Z,3.80
2022-10-01T08:46:16.381Z,3.70
2022-10-01T08:49:16.852Z,5.70
2022-10-01T08:51:53.188Z,19.40
2022-10-01T08:57:18.543Z,11.10
2022-10-01T08:59:52.132Z,9.70
2022-10-01T09:02:23.018Z,12.50
2022-10-01T09:05:00.332Z,7.60
2022-10-01T09:07:32.421Z,14.70
2022-10-01T09:10:28.081Z,9.90
2022-10-01T09:13:22.217Z,11.90
2022-10-01T09:16:02.394Z,12.20
2022-10-01T09:18:47.110Z,16.50
2022-10-01T09:21:23.174Z,10.70
2022-10-01T09:24:09.439Z,9.20
2022-10-01T09:26:42.225Z,8.50
2022-10-01T09:29:17.291Z,8.00
2022-10-01T09:31:49.275Z,8.30
2022-10-01T09:34:33.027Z,9.80
2022-10-01T09:37:05.707Z,9.20
2022-10-01T09:39:42.890Z,7.60
2022-10-01T09:42:10.883Z,7.90
2022-10-01T09:44:39.172Z,10.70
2022-10-01T09:47:22.962Z,9.10
2022-10-01T09:49:50.763Z,21.30
2022-10-01T09:52:31.735Z,17.10
2022-10-01T09:55:01.359Z,7.50
2022-10-01T09:57:35.327Z,10.00
2022-10-01T10:00:11.799Z,12.70
2022-10-01T10:02:49.501Z,15.60
2022-10-01T10:05:23.709Z,11.50
2022-10-01T10:08:14.067Z,8.40
2022-10-01T10:11:00.777Z,7.70
2022-10-01T10:16:18.082Z,15.30
2022-10-01T10:18:52.374Z,4.50
2022-10-01T10:21:25.521Z,3.00
2022-10-01T10:24:05.605Z,5.00
2022-10-01T10:26:39.298Z,2.70
2022-10-01T10:29:24.563Z,3.40
2022-10-01T10:31:55.650Z,2.60
2022-10-01T10:34:32.784Z,2.50
2022-10-01T10:37:05.833Z,3.30
2022-10-01T10:39:40.260Z,6.00
2022-10-01T10:42:08.581Z,6.60
2022-10-01T10:44:39.888Z,4.90
2022-10-01T10:47:14.922Z,3.50
2022-10-01T10:49:57.675Z,3.30
2022-10-01T10:52:36.820Z,1.90
2022-10-01T10:55:27.331Z,3.50
2022-10-01T10:57:57.745Z,3.70
2022-10-01T11:00:26.632Z,1.10
2022-10-01T11:03:04.766Z,2.30
2022-10-01T11:05:39.971Z,2.40
2022-10-01T11:08:16.892Z,4.80
2022-10-01T11:10:55.283Z,3.20
2022-10-01T11:13:32.939Z,3.50
2022-10-01T11:16:01.009Z,1.80
2022-10-01T11:18:48.335Z,1.60
2022-10-01T11:21:22.599Z,3.30
2022-10-01T11:24:37.510Z,3.70
2022-10-01T11:27:27.711Z,2.50
2022-10-01T11:30:05.138Z,2.20
2022-10-01T11:33:17.036Z,5.90
2022-10-01T11:35:45.180Z,5.30
2022-10-01T11:38:31.262Z,3.30
2022-10-01T11:41:19.266Z,2.40
2022-10-01T11:43:54.418Z,1.80
2022-10-01T11:46:41.493Z,4.20
2022-10-01T11:49:15.601Z,2.60
2022-10-01T11:51:51.011Z,4.70
2022-10-01T11:54:26.691Z,4.40
2022-10-01T11:57:15.338Z,4.80
2022-10-01T12:00:04.440Z,7.80
2022-10-01T12:02:43.201Z,2.50
2022-10-01T12:05:18.614Z,5.50
2022-10-01T12:08:12.591Z,1.70
2022-10-01T12:10:47.259Z,1.20
2022-10-01T12:13:36.725Z,2.40
2022-10-01T12:16:16.123Z,2.20
2022-10-01T12:19:03.691Z,2.10
2022-10-01T12:21:56.746Z,6.10
2022-10-01T12:24:34.197Z,1.40
2022-10-01T12:27:22.228Z,3.80
2022-10-01T12:29:50.040Z,3.50
2022-10-01T12:59:41.492Z,3.80
2022-10-01T13:30:29.381Z,1.30
2022-10-01T13:33:23.708Z,3.30
2022-10-01T13:36:03.527Z,1.90
2022-10-01T13:38:48.226Z,2.50
2022-10-01T13:41:24.280Z,1.90
2022-10-01T13:46:35.792Z,1.80
2022-10-01T13:49:26.425Z,2.20
2022-10-01T13:51:55.304Z,2.60
2022-10-01T13:54:51.503Z,3.40
2022-10-01T13:57:37.483Z,3.90
2022-10-01T14:00:09.574Z,4.90
2022-10-01T14:02:40.393Z,3.00
2022-10-01T14:05:28.938Z,4.40
2022-10-01T14:08:11.496Z,1.70
2022-10-01T14:11:12.396Z,4.00
2022-10-01T14:14:05.731Z,5.40
2022-10-01T14:16:46.655Z,5.60
2022-10-01T14:19:20.648Z,4.20
2022-10-01T14:21:56.329Z,5.70
2022-10-01T14:24:24.203Z,6.40
2022-10-01T14:27:13.988Z,2.80
2022-10-01T14:29:50.908Z,1.00
2022-10-01T14:32:37.296Z,4.50
2022-10-01T14:35:31.419Z,5.10
2022-10-01T14:38:11.965Z,2.40
2022-10-01T14:40:43.286Z,4.00
2022-10-01T14:43:32.257Z,2.80
2022-10-01T14:46:06.171Z,3.70
2022-10-01T14:48:37.890Z,5.10
2022-10-01T14:51:07.940Z,1.80
2022-10-01T14:53:42.076Z,3.10
2022-10-01T14:56:14.218Z,3.20
2022-10-01T14:58:46.803Z,1.90
2022-10-01T15:01:22.712Z,4.20
2022-10-01T15:03:52.111Z,3.90
2022-10-01T15:06:23.130Z,5.00
2022-10-01T15:08:53.519Z,4.60
2022-10-01T15:11:31.032Z,5.80
2022-10-01T15:14:24.687Z,1.30
2022-10-01T15:16:52.848Z,2.20
2022-10-01T15:19:23.171Z,4.30
2022-10-01T15:21:57.839Z,1.90
2022-10-01T15:24:32.188Z,2.70
2022-10-01T15:27:01.799Z,4.20
2022-10-01T15:29:30.207Z,1.70
2022-10-01T15:31:59.605Z,3.00
2022-10-01T15:34:28.322Z,4.50
2022-10-01T15:36:57.440Z,8.30
2022-10-01T15:39:25.424Z,4.30
2022-10-01T15:41:55.776Z,2.90
2022-10-01T15:44:40.967Z,7.10
2022-10-01T15:48:01.307Z,7.00
2022-10-01T15:50:36.587Z,4.60
2022-10-01T15:53:13.214Z,2.60
2022-10-01T15:55:47.945Z,4.90
2022-10-01T15:58:27.072Z,2.60
2022-10-01T16:01:06.665Z,6.10
2022-10-01T16:03:37.396Z,4.10
2022-10-01T16:06:18.903Z,4.50
2022-10-01T16:09:05.161Z,6.60
2022-10-01T16:12:04.055Z,2.40
2022-10-01T16:14:47.409Z,4.20
2022-10-01T16:17:18.376Z,7.00
2022-10-01T16:19:53.507Z,4.00
2022-10-01T16:22:28.592Z,3.00
2022-10-01T16:25:25.514Z,3.20
2022-10-01T16:28:22.619Z,4.40
2022-10-01T16:30:55.319Z,3.20
2022-10-01T16:33:23.432Z,3.90
2022-10-01T16:36:10.085Z,2.40
2022-10-01T16:38:37.956Z,3.40
2022-10-01T16:41:06.068Z,5.80
2022-10-01T16:43:34.109Z,5.70
2022-10-01T16:46:02.361Z,6.60
2022-10-01T16:48:30.299Z,3.70
2022-10-01T16:50:59.404Z,7.00
2022-10-01T16:53:27.896Z,7.50
2022-10-01T16:55:58.231Z,10.90
2022-10-01T16:58:27.014Z,8.70
2022-10-01T17:00:55.148Z,9.90
2022-10-01T17:03:24.384Z,8.00
2022-10-01T17:05:52.354Z,4.80
2022-10-01T17:08:20.210Z,7.80
2022-10-01T17:10:58.588Z,5.30
2022-10-01T17:13:31.497Z,7.30
2022-10-01T17:15:59.988Z,5.00
2022-10-01T17:18:28.216Z,5.90
2022-10-01T17:20:56.363Z,1.80
2022-10-01T17:23:24.527Z,3.00
2022-10-01T17:25:52.522Z,4.60
2022-10-01T17:28:21.790Z,2.10
2022-10-01T17:30:50.004Z,2.90
2022-10-01T17:33:19.493Z,1.70
2022-10-01T17:35:51.905Z,1.20
2022-10-01T17:38:21.158Z,2.90
2022-10-01T17:40:55.682Z,1.30
2022-10-01T17:43:24.682Z,1.80
2022-10-01T17:45:57.765Z,2.90
2022-10-01T17:48:26.987Z,1.20
2022-10-01T17:51:07.588Z,3.20
2022-10-01T17:53:42.210Z,1.40
2022-10-01T17:56:26.021Z,2.00
2022-10-01T17:58:54.793Z,1.80
2022-10-01T18:01:22.913Z,2.00
2022-10-01T18:03:56.060Z,5.40
2022-10-01T18:06:26.451Z,3.60
2022-10-01T18:08:56.559Z,2.60
2022-10-01T18:11:28.546Z,1.50
2022-10-01T18:13:57.495Z,3.30
2022-10-01T18:16:26.678Z,2.70
2022-10-01T18:21:48.974Z,3.10
2022-10-01T18:24:17.600Z,1.60
2022-10-01T18:26:46.771Z,4.50
2022-10-01T18:29:21.224Z,1.70
2022-10-01T18:32:14.005Z,2.10
2022-10-01T18:34:56.025Z,2.20
2022-10-01T18:37:46.845Z,2.20
2022-10-01T18:40:21.427Z,8.40
2022-10-01T18:42:49.600Z,3.20
2022-10-01T18:45:24.918Z,2.00
2022-10-01T18:48:06.815Z,3.50
2022-10-01T18:50:46.134Z,2.40
2022-10-01T18:53:41.677Z,3.60
2022-10-01T18:56:32.339Z,2.60
2022-10-01T18:59:42.086Z,2.20
2022-10-01T19:02:34.943Z,2.20
2022-10-01T19:05:36.172Z,2.30
2022-10-01T19:08:14.044Z,6.50
2022-10-01T19:10:48.094Z,3.80
2022-10-01T19:13:41.099Z,3.70
2022-10-01T19:16:20.328Z,1.60
2022-10-01T19:19:06.679Z,2.10
2022-10-01T19:21:49.444Z,1.90
2022-10-01T19:24:36.262Z,2.20
2022-10-01T19:27:32.118Z,1.90
2022-10-01T19:30:12.907Z,5.80
2022-10-01T19:32:58.261Z,1.60
2022-10-01T19:35:32.431Z,1.30
2022-10-01T19:38:11.476Z,1.20
2022-10-01T19:40:51.359Z,1.80
2022-10-01T19:43:46.560Z,2.90
2022-10-01T19:46:36.279Z,2.40
2022-10-01T19:49:14.933Z,2.40
2022-10-01T19:51:48.018Z,2.40
2022-10-01T19:54:19.485Z,2.40
2022-10-01T19:56:53.274Z,5.70
2022-10-01T19:59:21.995Z,3.80
2022-10-01T20:01:58.301Z,4.80
2022-10-01T20:04:40.996Z,5.10
2022-10-01T20:07:15.039Z,8.50
2022-10-01T20:09:54.277Z,7.20
2022-10-01T20:12:54.696Z,6.00
2022-10-01T20:15:43.473Z,2.80
2022-10-01T20:18:17.618Z,4.40
2022-10-01T20:21:07.321Z,9.20
2022-10-01T20:24:30.412Z,3.80
2022-10-01T20:27:17.030Z,3.70
2022-10-01T20:29:47.566Z,2.60
2022-10-01T20:32:22.479Z,2.00
2022-10-01T20:35:18.025Z,1.60
2022-10-01T20:38:09.088Z,1.50
2022-10-01T20:40:58.624Z,2.00
2022-10-01T20:43:33.824Z,2.20
2022-10-01T20:46:24.928Z,1.00
2022-10-01T20:49:01.507Z,1.20
2022-10-01T20:54:17.258Z,1.40
2022-10-01T20:56:53.698Z,2.80
2022-10-01T20:59:29.946Z,4.70
2022-10-01T21:05:00.449Z,1.20
2022-10-01T21:07:53.266Z,1.60
2022-10-01T21:10:33.682Z,1.50
2022-10-01T21:13:15.396Z,0.80
2022-10-01T21:16:02.233Z,1.60
2022-10-01T21:18:36.215Z,2.40
2022-10-01T21:21:26.259Z,1.10
2022-10-01T21:24:21.145Z,2.10
2022-10-01T21:27:36.861Z,1.30
2022-10-01T21:30:11.964Z,1.20
2022-10-01T21:33:02.242Z,1.00
2022-10-01T21:35:45.999Z,1.70
2022-10-01T21:38:28.332Z,1.10
2022-10-01T21:41:19.825Z,2.30
2022-10-01T21:44:28.490Z,1.40
2022-10-01T21:46:59.020Z,0.60
2022-10-01T21:49:32.093Z,0.70
2022-10-01T21:52:10.879Z,1.00
2022-10-01T21:54:38.732Z,1.50
2022-10-01T21:57:44.702Z,1.20
2022-10-01T22:00:21.498Z,0.80
2022-10-01T22:02:52.614Z,2.00
2022-10-01T22:05:50.212Z,0.80
2022-10-01T22:10:57.854Z,0.90
2022-10-01T22:13:29.447Z,0.70
2022-10-01T22:16:02.642Z,1.30
2022-10-01T22:18:52.135Z,0.80
2022-10-01T22:21:35.493Z,1.90
2022-10-01T22:24:09.894Z,1.40
2022-10-01T22:26:46.963Z,0.90
2022-10-01T22:29:21.418Z,1.20
2022-10-01T22:31:53.870Z,1.90
2022-10-01T22:34:27.744Z,1.10
2022-10-01T22:37:02.053Z,1.20
2022-10-01T22:39:37.477Z,1.30
2022-10-01T22:42:16.242Z,5.10
2022-10-01T22:44:44.170Z,6.30
2022-10-01T22:47:20.900Z,3.00
2022-10-01T22:50:29.566Z,5.30
2022-10-01T22:53:12.671Z,4.90
2022-10-01T22:55:55.148Z,7.80
2022-10-01T22:59:05.207Z,7.40
2022-10-01T23:02:07.910Z,8.60
2022-10-01T23:04:45.017Z,7.50
2022-10-01T23:07:17.828Z,6.20
2022-10-01T23:10:04.143Z,8.10
2022-10-01T23:13:05.485Z,5.90
2022-10-01T23:15:59.140Z,6.30
2022-10-01T23:18:54.284Z,7.50
2022-10-01T23:21:34.411Z,8.50
2022-10-01T23:24:08.268Z,7.40
2022-10-01T23:26:44.152Z,6.20
2022-10-01T23:29:44.183Z,5.20
2022-10-01T23:32:15.253Z,5.50
2022-10-01T23:34:46.107Z,5.30
2022-10-01T23:37:28.942Z,3.90
2022-10-01T23:40:11.525Z,2.50
2022-10-01T23:43:22.515Z,1.80
2022-10-01T23:46:02.689Z,2.00
2022-10-01T23:48:40.265Z,1.50
2022-10-01T23:51:28.892Z,2.40
2022-10-01T23:54:12.389Z,1.80
2022-10-01T23:57:11.021Z,4.20
2022-10-01T23:59:52.815Z,2.60
